sensor_id;sensor_type;location;lat;lon;timestamp;P1;durP1;ratioP1;P2;durP2;ratioP2
64018;SDS011;66942;52.138;5.216;2023-04-01T00:01:24;27.0;;;17.3;;
64018;SDS011;66942;52.138;5.216;2023-04-01T00:04:38;27.2;;;16.11;;
64018;SDS011;66942;52.138;5.216;2023-04-01T00:06:15;26.7;;;16.5;;
64018;SDS011;66942;52.138;5.216;2023-04-01T00:07:53;25.9;;;16.0;;
64018;SDS011;66942;52.138;5.216;2023-04-01T00:09:29;25.7;;;16.5;;
64018;SDS011;66942;52.138;5.216;2023-04-01T00:12:41;25.8;;;16.2;;
64018;SDS011;66942;52.138;5.216;2023-04-01T00:14:18;25.6;;;15.1;;
64018;SDS011;66942;52.138;5.216;2023-04-01T00:15:55;19.3;;;13.5;;
64018;SDS011;66942;52.138;5.216;2023-04-01T00:19:08;23.4;;;12.6;;
64018;SDS011;66942;52.138;5.216;2023-04-01T00:20:44;17.2;;;12.8;;
64018;SDS011;66942;52.138;5.216;2023-04-01T00:22:22;21.2;;;13.6;;
64018;SDS011;66942;52.138;5.216;2023-04-01T00:25:35;24.6;;;14.7;;
64018;SDS011;66942;52.138;5.216;2023-04-01T00:27:11;21.3;;;13.8;;
64018;SDS011;66942;52.138;5.216;2023-04-01T00:28:48;24.6;;;14.6;;
64018;SDS011;66942;52.138;5.216;2023-04-01T00:30:24;23.4;;;15.0;;
64018;SDS011;66942;52.138;5.216;2023-04-01T00:33:37;22.7;;;15.5;;
64018;SDS011;66942;52.138;5.216;2023-04-01T00:35:14;23.5;;;15.7;;
64018;SDS011;66942;52.138;5.216;2023-04-01T00:36:51;26.0;;;18.2;;
64018;SDS011;66942;52.138;5.216;2023-04-01T00:40:06;24.4;;;18.41;;
64018;SDS011;66942;52.138;5.216;2023-04-01T00:42:00;26.7;;;19.3;;
64018;SDS011;66942;52.138;5.216;2023-04-01T00:43:39;22.2;;;17.91;;
64018;SDS011;66942;52.138;5.216;2023-04-01T00:45:25;24.6;;;18.11;;
64018;SDS011;66942;52.138;5.216;2023-04-01T00:48:41;25.2;;;19.11;;
64018;SDS011;66942;52.138;5.216;2023-04-01T00:50:21;26.4;;;19.2;;
64018;SDS011;66942;52.138;5.216;2023-04-01T00:52:01;25.8;;;20.0;;
64018;SDS011;66942;52.138;5.216;2023-04-01T00:53:40;24.6;;;19.91;;
64018;SDS011;66942;52.138;5.216;2023-04-01T00:56:59;24.2;;;20.6;;
64018;SDS011;66942;52.138;5.216;2023-04-01T00:58:40;27.2;;;20.8;;
64018;SDS011;66942;52.138;5.216;2023-04-01T01:00:20;26.4;;;21.1;;
64018;SDS011;66942;52.138;5.216;2023-04-01T01:01:56;23.9;;;20.9;;
64018;SDS011;66942;52.138;5.216;2023-04-01T01:05:08;28.0;;;22.5;;
64018;SDS011;66942;52.138;5.216;2023-04-01T01:06:49;23.7;;;21.2;;
64018;SDS011;66942;52.138;5.216;2023-04-01T01:08:39;26.3;;;21.3;;
64018;SDS011;66942;52.138;5.216;2023-04-01T01:10:38;22.1;;;19.5;;
64018;SDS011;66942;52.138;5.216;2023-04-01T01:12:17;20.5;;;18.2;;
64018;SDS011;66942;52.138;5.216;2023-04-01T01:15:41;21.4;;;18.11;;
64018;SDS011;66942;52.138;5.216;2023-04-01T01:17:26;21.3;;;18.3;;
64018;SDS011;66942;52.138;5.216;2023-04-01T01:19:18;18.41;;;15.8;;
64018;SDS011;66942;52.138;5.216;2023-04-01T01:21:52;18.41;;;15.8;;
64018;SDS011;66942;52.138;5.216;2023-04-01T01:26:22;13.6;;;12.3;;
64018;SDS011;66942;52.138;5.216;2023-04-01T01:28:37;13.7;;;12.4;;
64018;SDS011;66942;52.138;5.216;2023-04-01T01:30:31;15.9;;;14.4;;
64018;SDS011;66942;52.138;5.216;2023-04-01T01:32:20;15.8;;;14.3;;
64018;SDS011;66942;52.138;5.216;2023-04-01T01:35:14;13.1;;;11.9;;
64018;SDS011;66942;52.138;5.216;2023-04-01T01:36:59;13.2;;;11.9;;
64018;SDS011;66942;52.138;5.216;2023-04-01T01:38:41;12.1;;;10.9;;
64018;SDS011;66942;52.138;5.216;2023-04-01T01:40:19;13.2;;;11.3;;
64018;SDS011;66942;52.138;5.216;2023-04-01T01:41:56;11.5;;;10.4;;
64018;SDS011;66942;52.138;5.216;2023-04-01T01:43:36;10.6;;;9.6;;
64018;SDS011;66942;52.138;5.216;2023-04-01T01:46:57;10.6;;;9.6;;
64018;SDS011;66942;52.138;5.216;2023-04-01T01:48:34;10.8;;;9.71;;
64018;SDS011;66942;52.138;5.216;2023-04-01T01:50:13;9.9;;;9.1;;
64018;SDS011;66942;52.138;5.216;2023-04-01T01:53:28;8.9;;;8.1;;
64018;SDS011;66942;52.138;5.216;2023-04-01T01:55:22;9.6;;;8.71;;
64018;SDS011;66942;52.138;5.216;2023-04-01T01:57:03;10.5;;;9.4;;
64018;SDS011;66942;52.138;5.216;2023-04-01T01:58:43;9.21;;;8.4;;
64018;SDS011;66942;52.138;5.216;2023-04-01T02:00:22;10.0;;;9.0;;
64018;SDS011;66942;52.138;5.216;2023-04-01T02:03:36;10.4;;;9.31;;
64018;SDS011;66942;52.138;5.216;2023-04-01T02:05:16;9.31;;;8.5;;
64018;SDS011;66942;52.138;5.216;2023-04-01T02:06:55;7.7;;;6.9;;
64018;SDS011;66942;52.138;5.216;2023-04-01T02:10:18;8.5;;;7.7;;
64018;SDS011;66942;52.138;5.216;2023-04-01T02:11:59;7.6;;;7.0;;
64018;SDS011;66942;52.138;5.216;2023-04-01T02:13:40;7.5;;;6.8;;
64018;SDS011;66942;52.138;5.216;2023-04-01T02:15:22;7.5;;;6.8;;
64018;SDS011;66942;52.138;5.216;2023-04-01T02:18:44;6.9;;;6.2;;
64018;SDS011;66942;52.138;5.216;2023-04-01T02:20:24;7.7;;;6.6;;
64018;SDS011;66942;52.138;5.216;2023-04-01T02:22:05;7.5;;;6.7;;
64018;SDS011;66942;52.138;5.216;2023-04-01T02:23:46;9.0;;;6.9;;
64018;SDS011;66942;52.138;5.216;2023-04-01T02:27:03;6.7;;;6.1;;
64018;SDS011;66942;52.138;5.216;2023-04-01T02:28:39;6.2;;;5.6;;
64018;SDS011;66942;52.138;5.216;2023-04-01T02:30:19;7.1;;;6.3;;
64018;SDS011;66942;52.138;5.216;2023-04-01T02:31:56;7.6;;;6.9;;
64018;SDS011;66942;52.138;5.216;2023-04-01T02:35:11;7.7;;;7.0;;
64018;SDS011;66942;52.138;5.216;2023-04-01T02:36:49;7.8;;;7.1;;
64018;SDS011;66942;52.138;5.216;2023-04-01T02:38:26;10.5;;;9.31;;
64018;SDS011;66942;52.138;5.216;2023-04-01T02:41:43;12.0;;;8.4;;
64018;SDS011;66942;52.138;5.216;2023-04-01T02:43:20;9.6;;;7.6;;
64018;SDS011;66942;52.138;5.216;2023-04-01T02:44:57;8.71;;;7.8;;
64018;SDS011;66942;52.138;5.216;2023-04-01T02:46:33;8.2;;;7.5;;
64018;SDS011;66942;52.138;5.216;2023-04-01T02:49:45;7.7;;;6.9;;
64018;SDS011;66942;52.138;5.216;2023-04-01T02:51:21;8.5;;;7.8;;
64018;SDS011;66942;52.138;5.216;2023-04-01T02:52:58;9.0;;;8.1;;
64018;SDS011;66942;52.138;5.216;2023-04-01T02:56:11;7.7;;;6.9;;
64018;SDS011;66942;52.138;5.216;2023-04-01T02:57:47;7.1;;;6.6;;
64018;SDS011;66942;52.138;5.216;2023-04-01T02:59:24;7.8;;;7.2;;
64018;SDS011;66942;52.138;5.216;2023-04-01T03:01:00;7.7;;;7.1;;
64018;SDS011;66942;52.138;5.216;2023-04-01T03:04:13;9.0;;;8.4;;
64018;SDS011;66942;52.138;5.216;2023-04-01T03:05:49;8.1;;;7.4;;
64018;SDS011;66942;52.138;5.216;2023-04-01T03:07:25;8.81;;;8.2;;
64018;SDS011;66942;52.138;5.216;2023-04-01T03:10:37;10.21;;;9.31;;
64018;SDS011;66942;52.138;5.216;2023-04-01T03:12:14;10.5;;;9.71;;
64018;SDS011;66942;52.138;5.216;2023-04-01T03:13:50;13.8;;;12.6;;
64018;SDS011;66942;52.138;5.216;2023-04-01T03:17:02;12.2;;;11.3;;
64018;SDS011;66942;52.138;5.216;2023-04-01T03:18:38;13.6;;;12.6;;
64018;SDS011;66942;52.138;5.216;2023-04-01T03:20:14;15.5;;;14.1;;
64018;SDS011;66942;52.138;5.216;2023-04-01T03:23:27;16.61;;;15.3;;
64018;SDS011;66942;52.138;5.216;2023-04-01T03:25:04;15.9;;;14.6;;
64018;SDS011;66942;52.138;5.216;2023-04-01T03:26:42;18.41;;;16.8;;
64018;SDS011;66942;52.138;5.216;2023-04-01T03:28:18;17.7;;;16.3;;
64018;SDS011;66942;52.138;5.216;2023-04-01T03:31:30;16.4;;;15.2;;
64018;SDS011;66942;52.138;5.216;2023-04-01T03:33:06;17.91;;;16.4;;
64018;SDS011;66942;52.138;5.216;2023-04-01T03:34:43;17.11;;;15.8;;
64018;SDS011;66942;52.138;5.216;2023-04-01T03:37:55;17.91;;;16.4;;
64018;SDS011;66942;52.138;5.216;2023-04-01T03:39:31;16.7;;;15.4;;
64018;SDS011;66942;52.138;5.216;2023-04-01T03:41:07;17.61;;;16.11;;
64018;SDS011;66942;52.138;5.216;2023-04-01T03:44:24;17.11;;;15.9;;
64018;SDS011;66942;52.138;5.216;2023-04-01T03:46:00;15.8;;;14.7;;
64018;SDS011;66942;52.138;5.216;2023-04-01T03:47:37;16.0;;;14.8;;
64018;SDS011;66942;52.138;5.216;2023-04-01T03:49:13;15.6;;;14.5;;
64018;SDS011;66942;52.138;5.216;2023-04-01T03:52:25;16.0;;;14.8;;
64018;SDS011;66942;52.138;5.216;2023-04-01T03:54:01;16.4;;;15.2;;
64018;SDS011;66942;52.138;5.216;2023-04-01T03:55:37;16.11;;;14.9;;
64018;SDS011;66942;52.138;5.216;2023-04-01T03:58:50;16.61;;;15.2;;
64018;SDS011;66942;52.138;5.216;2023-04-01T04:00:27;16.11;;;14.9;;
64018;SDS011;66942;52.138;5.216;2023-04-01T04:02:04;15.6;;;14.4;;
64018;SDS011;66942;52.138;5.216;2023-04-01T04:05:16;15.9;;;14.7;;
64018;SDS011;66942;52.138;5.216;2023-04-01T04:06:52;16.9;;;15.6;;
64018;SDS011;66942;52.138;5.216;2023-04-01T04:08:29;15.3;;;14.3;;
64018;SDS011;66942;52.138;5.216;2023-04-01T04:10:06;14.9;;;13.7;;
64018;SDS011;66942;52.138;5.216;2023-04-01T04:13:18;14.0;;;13.1;;
64018;SDS011;66942;52.138;5.216;2023-04-01T04:14:55;14.0;;;13.1;;
64018;SDS011;66942;52.138;5.216;2023-04-01T04:16:34;14.2;;;13.2;;
64018;SDS011;66942;52.138;5.216;2023-04-01T04:19:47;14.3;;;13.1;;
64018;SDS011;66942;52.138;5.216;2023-04-01T04:21:23;14.4;;;13.3;;
64018;SDS011;66942;52.138;5.216;2023-04-01T04:22:59;13.2;;;12.3;;
64018;SDS011;66942;52.138;5.216;2023-04-01T04:26:13;15.0;;;13.8;;
64018;SDS011;66942;52.138;5.216;2023-04-01T04:27:51;13.0;;;12.0;;
64018;SDS011;66942;52.138;5.216;2023-04-01T04:29:27;12.1;;;11.3;;
64018;SDS011;66942;52.138;5.216;2023-04-01T04:31:03;10.6;;;9.81;;
64018;SDS011;66942;52.138;5.216;2023-04-01T04:34:16;9.4;;;8.81;;
64018;SDS011;66942;52.138;5.216;2023-04-01T04:35:54;8.9;;;8.31;;
64018;SDS011;66942;52.138;5.216;2023-04-01T04:37:31;8.81;;;8.1;;
64018;SDS011;66942;52.138;5.216;2023-04-01T04:40:44;8.1;;;7.5;;
64018;SDS011;66942;52.138;5.216;2023-04-01T04:42:21;8.4;;;7.9;;
64018;SDS011;66942;52.138;5.216;2023-04-01T04:43:57;8.1;;;7.6;;
64018;SDS011;66942;52.138;5.216;2023-04-01T04:47:09;9.1;;;8.5;;
64018;SDS011;66942;52.138;5.216;2023-04-01T04:48:45;10.5;;;9.6;;
64018;SDS011;66942;52.138;5.216;2023-04-01T04:50:21;9.9;;;9.31;;
64018;SDS011;66942;52.138;5.216;2023-04-01T04:51:59;9.9;;;9.21;;
64018;SDS011;66942;52.138;5.216;2023-04-01T04:55:11;10.4;;;9.81;;
64018;SDS011;66942;52.138;5.216;2023-04-01T04:56:48;11.1;;;10.5;;
64018;SDS011;66942;52.138;5.216;2023-04-01T04:58:27;10.9;;;10.3;;
64018;SDS011;66942;52.138;5.216;2023-04-01T05:01:41;10.7;;;10.21;;
64018;SDS011;66942;52.138;5.216;2023-04-01T05:03:17;10.5;;;10.0;;
64018;SDS011;66942;52.138;5.216;2023-04-01T05:04:53;11.8;;;11.1;;
64018;SDS011;66942;52.138;5.216;2023-04-01T05:08:05;11.0;;;10.3;;
64018;SDS011;66942;52.138;5.216;2023-04-01T05:09:41;10.8;;;10.21;;
64018;SDS011;66942;52.138;5.216;2023-04-01T05:11:18;11.2;;;10.6;;
64018;SDS011;66942;52.138;5.216;2023-04-01T05:12:55;11.7;;;10.9;;
64018;SDS011;66942;52.138;5.216;2023-04-01T05:16:07;11.7;;;11.0;;
64018;SDS011;66942;52.138;5.216;2023-04-01T05:17:44;11.5;;;10.7;;
64018;SDS011;66942;52.138;5.216;2023-04-01T05:19:20;11.5;;;10.7;;
64018;SDS011;66942;52.138;5.216;2023-04-01T05:22:31;13.2;;;12.3;;
64018;SDS011;66942;52.138;5.216;2023-04-01T05:24:08;13.0;;;12.2;;
64018;SDS011;66942;52.138;5.216;2023-04-01T05:25:44;14.3;;;13.3;;
64018;SDS011;66942;52.138;5.216;2023-04-01T05:28:55;13.5;;;12.7;;
64018;SDS011;66942;52.138;5.216;2023-04-01T05:30:31;13.5;;;12.7;;
64018;SDS011;66942;52.138;5.216;2023-04-01T05:32:07;13.8;;;12.9;;
64018;SDS011;66942;52.138;5.216;2023-04-01T05:33:43;12.9;;;12.2;;
64018;SDS011;66942;52.138;5.216;2023-04-01T05:36:55;13.4;;;12.6;;
64018;SDS011;66942;52.138;5.216;2023-04-01T05:38:31;14.3;;;13.3;;
64018;SDS011;66942;52.138;5.216;2023-04-01T05:40:08;13.5;;;12.7;;
64018;SDS011;66942;52.138;5.216;2023-04-01T05:43:21;13.3;;;12.5;;
64018;SDS011;66942;52.138;5.216;2023-04-01T05:44:57;13.7;;;12.9;;
64018;SDS011;66942;52.138;5.216;2023-04-01T05:46:33;13.9;;;13.0;;
64018;SDS011;66942;52.138;5.216;2023-04-01T05:49:45;14.6;;;13.7;;
64018;SDS011;66942;52.138;5.216;2023-04-01T05:51:21;13.8;;;12.9;;
64018;SDS011;66942;52.138;5.216;2023-04-01T05:52:58;14.8;;;13.9;;
64018;SDS011;66942;52.138;5.216;2023-04-01T05:56:11;15.1;;;14.1;;
64018;SDS011;66942;52.138;5.216;2023-04-01T05:57:47;14.9;;;13.9;;
64018;SDS011;66942;52.138;5.216;2023-04-01T05:59:23;15.0;;;14.0;;
64018;SDS011;66942;52.138;5.216;2023-04-01T06:01:00;13.8;;;13.0;;
64018;SDS011;66942;52.138;5.216;2023-04-01T06:04:14;13.8;;;13.0;;
64018;SDS011;66942;52.138;5.216;2023-04-01T06:05:51;16.0;;;14.7;;
64018;SDS011;66942;52.138;5.216;2023-04-01T06:07:28;14.7;;;13.7;;
64018;SDS011;66942;52.138;5.216;2023-04-01T06:10:53;16.61;;;15.4;;
64018;SDS011;66942;52.138;5.216;2023-04-01T06:12:40;15.8;;;14.7;;
64018;SDS011;66942;52.138;5.216;2023-04-01T06:14:39;16.5;;;15.1;;
64018;SDS011;66942;52.138;5.216;2023-04-01T06:16:29;13.9;;;13.0;;
64018;SDS011;66942;52.138;5.216;2023-04-01T06:18:21;15.5;;;14.5;;
64018;SDS011;66942;52.138;5.216;2023-04-01T06:21:04;14.3;;;13.4;;
64018;SDS011;66942;52.138;5.216;2023-04-01T06:23:06;15.1;;;14.2;;
64018;SDS011;66942;52.138;5.216;2023-04-01T06:25:18;15.7;;;14.6;;
64018;SDS011;66942;52.138;5.216;2023-04-01T06:27:07;14.3;;;13.4;;
64018;SDS011;66942;52.138;5.216;2023-04-01T06:29:00;15.0;;;14.0;;
64018;SDS011;66942;52.138;5.216;2023-04-01T06:31:09;15.5;;;14.4;;
64018;SDS011;66942;52.138;5.216;2023-04-01T06:33:00;14.4;;;13.5;;
64018;SDS011;66942;52.138;5.216;2023-04-01T06:35:46;13.3;;;12.6;;
64018;SDS011;66942;52.138;5.216;2023-04-01T06:38:04;15.5;;;14.4;;
64018;SDS011;66942;52.138;5.216;2023-04-01T06:41:11;14.2;;;13.1;;
64018;SDS011;66942;52.138;5.216;2023-04-01T06:44:14;13.8;;;13.0;;
64018;SDS011;66942;52.138;5.216;2023-04-01T06:46:00;13.0;;;12.1;;
64018;SDS011;66942;52.138;5.216;2023-04-01T06:47:49;12.3;;;11.6;;
64018;SDS011;66942;52.138;5.216;2023-04-01T06:49:41;11.4;;;10.7;;
64018;SDS011;66942;52.138;5.216;2023-04-01T06:51:31;9.6;;;9.0;;
64018;SDS011;66942;52.138;5.216;2023-04-01T06:53:21;10.9;;;10.21;;
64018;SDS011;66942;52.138;5.216;2023-04-01T06:57:03;10.0;;;9.4;;
64018;SDS011;66942;52.138;5.216;2023-04-01T06:58:56;9.0;;;8.4;;
64018;SDS011;66942;52.138;5.216;2023-04-01T07:00:39;8.81;;;8.31;;
64018;SDS011;66942;52.138;5.216;2023-04-01T07:02:22;10.1;;;9.4;;
64018;SDS011;66942;52.138;5.216;2023-04-01T07:04:05;11.1;;;10.4;;
64018;SDS011;66942;52.138;5.216;2023-04-01T07:05:49;9.71;;;9.21;;
64018;SDS011;66942;52.138;5.216;2023-04-01T07:09:11;9.5;;;8.9;;
64018;SDS011;66942;52.138;5.216;2023-04-01T07:10:53;9.5;;;9.0;;
64018;SDS011;66942;52.138;5.216;2023-04-01T07:12:37;9.71;;;9.1;;
64018;SDS011;66942;52.138;5.216;2023-04-01T07:14:19;9.9;;;9.4;;
64018;SDS011;66942;52.138;5.216;2023-04-01T07:17:51;10.5;;;9.9;;
64018;SDS011;66942;52.138;5.216;2023-04-01T07:19:32;11.4;;;10.6;;
64018;SDS011;66942;52.138;5.216;2023-04-01T07:21:21;10.1;;;9.5;;
64018;SDS011;66942;52.138;5.216;2023-04-01T07:23:02;11.4;;;10.6;;
64018;SDS011;66942;52.138;5.216;2023-04-01T07:24:41;12.0;;;11.2;;
64018;SDS011;66942;52.138;5.216;2023-04-01T07:28:00;11.4;;;10.7;;
64018;SDS011;66942;52.138;5.216;2023-04-01T07:29:40;12.6;;;11.7;;
64018;SDS011;66942;52.138;5.216;2023-04-01T07:31:20;11.9;;;11.1;;
64018;SDS011;66942;52.138;5.216;2023-04-01T07:33:08;12.0;;;11.3;;
64018;SDS011;66942;52.138;5.216;2023-04-01T07:36:48;12.5;;;11.6;;
64018;SDS011;66942;52.138;5.216;2023-04-01T07:38:36;13.0;;;12.1;;
64018;SDS011;66942;52.138;5.216;2023-04-01T07:40:26;13.6;;;12.5;;
64018;SDS011;66942;52.138;5.216;2023-04-01T07:42:15;13.3;;;12.3;;
64018;SDS011;66942;52.138;5.216;2023-04-01T07:44:02;12.4;;;11.6;;
64018;SDS011;66942;52.138;5.216;2023-04-01T07:45:54;14.2;;;13.0;;
64018;SDS011;66942;52.138;5.216;2023-04-01T07:47:41;13.2;;;12.2;;
64018;SDS011;66942;52.138;5.216;2023-04-01T07:51:21;13.8;;;12.7;;
64018;SDS011;66942;52.138;5.216;2023-04-01T07:53:06;13.9;;;12.6;;
64018;SDS011;66942;52.138;5.216;2023-04-01T07:54:53;13.1;;;12.1;;
64018;SDS011;66942;52.138;5.216;2023-04-01T07:56:38;12.8;;;12.0;;
64018;SDS011;66942;52.138;5.216;2023-04-01T07:58:23;15.6;;;14.3;;
64018;SDS011;66942;52.138;5.216;2023-04-01T08:00:11;14.1;;;13.0;;
64018;SDS011;66942;52.138;5.216;2023-04-01T08:03:51;14.1;;;13.1;;
64018;SDS011;66942;52.138;5.216;2023-04-01T08:05:49;14.4;;;13.2;;
64018;SDS011;66942;52.138;5.216;2023-04-01T08:07:33;15.0;;;13.8;;
64018;SDS011;66942;52.138;5.216;2023-04-01T08:09:19;15.1;;;13.7;;
64018;SDS011;66942;52.138;5.216;2023-04-01T08:11:08;15.0;;;13.8;;
64018;SDS011;66942;52.138;5.216;2023-04-01T08:12:59;17.0;;;15.4;;
64018;SDS011;66942;52.138;5.216;2023-04-01T08:16:32;17.3;;;15.6;;
64018;SDS011;66942;52.138;5.216;2023-04-01T08:18:19;16.4;;;15.0;;
64018;SDS011;66942;52.138;5.216;2023-04-01T08:20:11;16.11;;;14.8;;
64018;SDS011;66942;52.138;5.216;2023-04-01T08:21:57;18.61;;;17.0;;
64018;SDS011;66942;52.138;5.216;2023-04-01T08:23:40;18.5;;;16.9;;
64018;SDS011;66942;52.138;5.216;2023-04-01T08:25:21;18.0;;;16.5;;
64018;SDS011;66942;52.138;5.216;2023-04-01T08:28:45;18.5;;;16.8;;
64018;SDS011;66942;52.138;5.216;2023-04-01T08:30:30;18.2;;;16.61;;
64018;SDS011;66942;52.138;5.216;2023-04-01T08:32:17;17.7;;;16.2;;
64018;SDS011;66942;52.138;5.216;2023-04-01T08:33:59;19.0;;;17.2;;
64018;SDS011;66942;52.138;5.216;2023-04-01T08:37:26;18.0;;;16.5;;
64018;SDS011;66942;52.138;5.216;2023-04-01T08:39:09;21.0;;;19.0;;
64018;SDS011;66942;52.138;5.216;2023-04-01T08:41:24;19.7;;;17.8;;
64018;SDS011;66942;52.138;5.216;2023-04-01T08:44:47;18.91;;;17.3;;
64018;SDS011;66942;52.138;5.216;2023-04-01T08:47:39;19.61;;;18.0;;
64018;SDS011;66942;52.138;5.216;2023-04-01T08:51:10;20.7;;;18.8;;
64018;SDS011;66942;52.138;5.216;2023-04-01T08:54:11;19.8;;;18.11;;
64018;SDS011;66942;52.138;5.216;2023-04-01T08:57:25;20.6;;;18.7;;
64018;SDS011;66942;52.138;5.216;2023-04-01T08:59:24;19.61;;;17.91;;
64018;SDS011;66942;52.138;5.216;2023-04-01T09:01:33;19.7;;;18.11;;
64018;SDS011;66942;52.138;5.216;2023-04-01T09:04:39;19.7;;;18.0;;
64018;SDS011;66942;52.138;5.216;2023-04-01T09:06:36;22.8;;;20.41;;
64018;SDS011;66942;52.138;5.216;2023-04-01T09:08:29;20.0;;;18.3;;
64018;SDS011;66942;52.138;5.216;2023-04-01T09:10:24;20.7;;;18.91;;
64018;SDS011;66942;52.138;5.216;2023-04-01T09:13:37;21.0;;;19.0;;
64018;SDS011;66942;52.138;5.216;2023-04-01T09:15:30;23.5;;;21.2;;
64018;SDS011;66942;52.138;5.216;2023-04-01T09:18:48;22.0;;;19.7;;
64018;SDS011;66942;52.138;5.216;2023-04-01T09:21:41;21.4;;;19.41;;
64018;SDS011;66942;52.138;5.216;2023-04-01T09:23:48;19.7;;;17.7;;
64018;SDS011;66942;52.138;5.216;2023-04-01T09:26:08;20.0;;;18.11;;
64018;SDS011;66942;52.138;5.216;2023-04-01T09:28:06;20.2;;;18.11;;
64018;SDS011;66942;52.138;5.216;2023-04-01T09:32:23;15.5;;;14.3;;
64018;SDS011;66942;52.138;5.216;2023-04-01T09:36:02;15.7;;;14.4;;
64018;SDS011;66942;52.138;5.216;2023-04-01T09:37:47;16.3;;;14.9;;
64018;SDS011;66942;52.138;5.216;2023-04-01T09:39:36;13.6;;;12.6;;
64018;SDS011;66942;52.138;5.216;2023-04-01T09:41:20;14.8;;;13.6;;
64018;SDS011;66942;52.138;5.216;2023-04-01T09:43:12;13.7;;;12.6;;
64018;SDS011;66942;52.138;5.216;2023-04-01T09:45:05;13.2;;;12.1;;
64018;SDS011;66942;52.138;5.216;2023-04-01T09:46:56;13.6;;;12.4;;
64018;SDS011;66942;52.138;5.216;2023-04-01T09:52:13;13.5;;;12.5;;
64018;SDS011;66942;52.138;5.216;2023-04-01T09:54:08;14.1;;;13.0;;
64018;SDS011;66942;52.138;5.216;2023-04-01T09:56:45;13.8;;;12.7;;
64018;SDS011;66942;52.138;5.216;2023-04-01T09:59:20;12.2;;;11.3;;
64018;SDS011;66942;52.138;5.216;2023-04-01T10:01:25;12.4;;;11.5;;
64018;SDS011;66942;52.138;5.216;2023-04-01T10:06:08;7.2;;;6.8;;
64018;SDS011;66942;52.138;5.216;2023-04-01T10:13:24;6.3;;;5.8;;
64018;SDS011;66942;52.138;5.216;2023-04-01T10:16:47;7.3;;;6.9;;
64018;SDS011;66942;52.138;5.216;2023-04-01T10:20:25;8.0;;;7.5;;
64018;SDS011;66942;52.138;5.216;2023-04-01T10:22:42;7.4;;;7.0;;
64018;SDS011;66942;52.138;5.216;2023-04-01T10:26:10;7.4;;;7.0;;
64018;SDS011;66942;52.138;5.216;2023-04-01T10:29:35;7.8;;;7.4;;
64018;SDS011;66942;52.138;5.216;2023-04-01T10:32:50;8.2;;;7.7;;
64018;SDS011;66942;52.138;5.216;2023-04-01T10:36:42;9.31;;;8.81;;
64018;SDS011;66942;52.138;5.216;2023-04-01T10:38:43;9.21;;;8.71;;
64018;SDS011;66942;52.138;5.216;2023-04-01T10:45:24;11.0;;;10.3;;
64018;SDS011;66942;52.138;5.216;2023-04-01T10:49:20;11.5;;;10.8;;
64018;SDS011;66942;52.138;5.216;2023-04-01T10:51:59;12.2;;;11.5;;
64018;SDS011;66942;52.138;5.216;2023-04-01T10:55:59;10.4;;;9.81;;
64018;SDS011;66942;52.138;5.216;2023-04-01T11:00:10;10.6;;;9.9;;
64018;SDS011;66942;52.138;5.216;2023-04-01T11:04:34;9.6;;;9.1;;
64018;SDS011;66942;52.138;5.216;2023-04-01T11:07:19;11.0;;;10.3;;
64018;SDS011;66942;52.138;5.216;2023-04-01T11:10:57;9.81;;;9.31;;
64018;SDS011;66942;52.138;5.216;2023-04-01T11:12:20;8.5;;;8.0;;
64018;SDS011;66942;52.138;5.216;2023-04-01T11:13:21;7.3;;;7.0;;
64018;SDS011;66942;52.138;5.216;2023-04-01T11:14:50;7.3;;;7.0;;
64018;SDS011;66942;52.138;5.216;2023-04-01T11:15:18;6.9;;;6.5;;
64018;SDS011;66942;52.138;5.216;2023-04-01T11:18:38;6.3;;;6.0;;
64018;SDS011;66942;52.138;5.216;2023-04-01T11:19:33;6.6;;;6.2;;
64018;SDS011;66942;52.138;5.216;2023-04-01T11:20:20;6.6;;;6.2;;
64018;SDS011;66942;52.138;5.216;2023-04-01T11:21:19;7.0;;;6.6;;
64018;SDS011;66942;52.138;5.216;2023-04-01T11:22:18;7.0;;;6.6;;
64018;SDS011;66942;52.138;5.216;2023-04-01T11:23:16;7.5;;;7.1;;
64018;SDS011;66942;52.138;5.216;2023-04-01T11:25:34;6.6;;;6.2;;
64018;SDS011;66942;52.138;5.216;2023-04-01T11:27:53;6.6;;;6.2;;
64018;SDS011;66942;52.138;5.216;2023-04-01T11:30:16;6.5;;;6.2;;
64018;SDS011;66942;52.138;5.216;2023-04-01T11:32:05;6.2;;;5.9;;
64018;SDS011;66942;52.138;5.216;2023-04-01T11:33:55;6.7;;;6.4;;
64018;SDS011;66942;52.138;5.216;2023-04-01T11:35:46;6.4;;;6.0;;
64018;SDS011;66942;52.138;5.216;2023-04-01T11:38:03;7.3;;;6.9;;
64018;SDS011;66942;52.138;5.216;2023-04-01T11:39:56;6.3;;;6.0;;
64018;SDS011;66942;52.138;5.216;2023-04-01T11:43:29;6.3;;;6.0;;
64018;SDS011;66942;52.138;5.216;2023-04-01T11:45:19;6.3;;;6.0;;
64018;SDS011;66942;52.138;5.216;2023-04-01T11:47:12;6.1;;;5.7;;
64018;SDS011;66942;52.138;5.216;2023-04-01T11:49:36;5.7;;;5.4;;
64018;SDS011;66942;52.138;5.216;2023-04-01T11:52:18;5.6;;;5.3;;
64018;SDS011;66942;52.138;5.216;2023-04-01T11:54:04;6.2;;;5.9;;
64018;SDS011;66942;52.138;5.216;2023-04-01T11:55:54;6.6;;;6.2;;
64018;SDS011;66942;52.138;5.216;2023-04-01T11:57:50;6.3;;;6.0;;
64018;SDS011;66942;52.138;5.216;2023-04-01T11:59:47;7.1;;;6.8;;
64018;SDS011;66942;52.138;5.216;2023-04-01T12:01:43;6.9;;;6.6;;
64018;SDS011;66942;52.138;5.216;2023-04-01T12:03:35;7.8;;;7.5;;
64018;SDS011;66942;52.138;5.216;2023-04-01T12:06:00;7.8;;;7.4;;
64018;SDS011;66942;52.138;5.216;2023-04-01T12:07:50;8.2;;;7.5;;
64018;SDS011;66942;52.138;5.216;2023-04-01T12:09:39;7.7;;;7.3;;
64018;SDS011;66942;52.138;5.216;2023-04-01T12:11:26;9.0;;;8.6;;
64018;SDS011;66942;52.138;5.216;2023-04-01T12:15:03;10.21;;;9.71;;
64018;SDS011;66942;52.138;5.216;2023-04-01T12:16:56;10.7;;;10.21;;
64018;SDS011;66942;52.138;5.216;2023-04-01T12:18:40;10.21;;;9.71;;
64018;SDS011;66942;52.138;5.216;2023-04-01T12:20:26;10.9;;;10.4;;
64018;SDS011;66942;52.138;5.216;2023-04-01T12:22:19;11.5;;;10.8;;
64018;SDS011;66942;52.138;5.216;2023-04-01T12:24:29;11.1;;;10.6;;
64018;SDS011;66942;52.138;5.216;2023-04-01T12:26:41;11.9;;;11.3;;
64018;SDS011;66942;52.138;5.216;2023-04-01T12:29:07;12.5;;;11.9;;
64018;SDS011;66942;52.138;5.216;2023-04-01T12:31:01;11.7;;;11.0;;
64018;SDS011;66942;52.138;5.216;2023-04-01T12:32:53;12.1;;;11.5;;
64018;SDS011;66942;52.138;5.216;2023-04-01T12:34:44;13.0;;;12.3;;
64018;SDS011;66942;52.138;5.216;2023-04-01T12:36:40;13.0;;;12.3;;
64018;SDS011;66942;52.138;5.216;2023-04-01T12:38:30;12.6;;;12.0;;
64018;SDS011;66942;52.138;5.216;2023-04-01T12:43:10;12.6;;;11.8;;
64018;SDS011;66942;52.138;5.216;2023-04-01T12:45:14;13.7;;;12.9;;
64018;SDS011;66942;52.138;5.216;2023-04-01T12:47:33;13.9;;;13.0;;
64018;SDS011;66942;52.138;5.216;2023-04-01T12:51:11;14.2;;;13.3;;
64018;SDS011;66942;52.138;5.216;2023-04-01T12:54:13;15.9;;;15.0;;
64018;SDS011;66942;52.138;5.216;2023-04-01T12:57:55;17.3;;;16.2;;
64018;SDS011;66942;52.138;5.216;2023-04-01T13:01:39;16.61;;;15.5;;
64018;SDS011;66942;52.138;5.216;2023-04-01T13:03:46;17.61;;;16.4;;
64018;SDS011;66942;52.138;5.216;2023-04-01T13:06:40;16.7;;;15.5;;
64018;SDS011;66942;52.138;5.216;2023-04-01T13:09:21;15.8;;;14.9;;
64018;SDS011;66942;52.138;5.216;2023-04-01T13:11:09;16.3;;;15.3;;
64018;SDS011;66942;52.138;5.216;2023-04-01T13:13:00;17.2;;;15.8;;
64018;SDS011;66942;52.138;5.216;2023-04-01T13:15:21;15.4;;;14.5;;
64018;SDS011;66942;52.138;5.216;2023-04-01T13:17:13;13.4;;;12.6;;
64018;SDS011;66942;52.138;5.216;2023-04-01T13:18:59;13.4;;;12.6;;
64018;SDS011;66942;52.138;5.216;2023-04-01T13:20:43;12.6;;;11.9;;
64018;SDS011;66942;52.138;5.216;2023-04-01T13:22:26;12.6;;;11.9;;
64018;SDS011;66942;52.138;5.216;2023-04-01T13:26:15;11.4;;;10.6;;
64018;SDS011;66942;52.138;5.216;2023-04-01T13:28:00;10.6;;;9.81;;
64018;SDS011;66942;52.138;5.216;2023-04-01T13:29:45;10.3;;;9.5;;
64018;SDS011;66942;52.138;5.216;2023-04-01T13:31:51;11.7;;;11.0;;
64018;SDS011;66942;52.138;5.216;2023-04-01T13:33:42;10.1;;;9.6;;